Time;durP1;ratioP1;P1;durP2;ratioP2;P2;SDS_P1;SDS_P2;PMS_P1;PMS_P2;Temp;Humidity;BMP_temperature;BMP_pressure;BME280_temperature;BME280_humidity;BME280_pressure;Samples;Min_cycle;Max_cycle;Signal;HPM_P1;HPM_P2
2022/09/09 00:02:02;;;;;;;65.23;7.03;;;18.70;99.90;;;;;;5002818;28;20467;-83
2022/09/09 00:04:33;;;;;;;67.50;5.77;;;18.70;99.90;;;;;;5003336;28;20412;-84
2022/09/09 00:07:09;;;;;;;65.70;7.07;;;18.70;99.90;;;;;;5020687;28;20447;-84
2022/09/09 00:09:55;;;;;;;67.27;7.80;;;18.60;99.90;;;;;;5021235;28;20402;-84
2022/09/09 00:12:52;;;;;;;65.77;8.57;;;18.60;99.90;;;;;;5002816;28;20457;-83
2022/09/09 00:15:33;;;;;;;64.87;7.70;;;18.50;99.90;;;;;;5020971;28;20389;-83
2022/09/09 00:18:15;;;;;;;66.30;8.23;;;18.50;99.90;;;;;;5020763;28;20432;-84
2022/09/09 00:20:47;;;;;;;66.07;9.73;;;18.50;99.90;;;;;;5002955;28;20449;-84
2022/09/09 00:23:30;;;;;;;66.90;11.40;;;18.40;99.90;;;;;;5003123;28;20942;-83
2022/09/09 00:26:30;;;;;;;67.37;9.20;;;18.40;99.90;;;;;;5003272;28;20451;-83
2022/09/09 00:28:55;;;;;;;66.90;8.60;;;18.50;99.90;;;;;;5003016;28;20405;-84
2022/09/09 00:31:27;;;;;;;66.93;8.53;;;18.40;99.90;;;;;;5020416;28;20454;-84
2022/09/09 00:33:58;;;;;;;64.93;7.80;;;18.30;99.90;;;;;;5020172;28;20158;-83
2022/09/09 00:36:26;;;;;;;65.70;8.67;;;18.30;99.90;;;;;;5019520;28;20385;-83
2022/09/09 00:38:57;;;;;;;66.60;7.43;;;18.20;99.90;;;;;;5003743;28;20429;-84
2022/09/09 00:41:44;;;;;;;65.30;6.47;;;18.20;99.90;;;;;;5003682;28;20387;-84
2022/09/09 00:44:13;;;;;;;66.20;6.93;;;18.10;99.90;;;;;;5003737;28;20408;-84
2022/09/09 00:46:59;;;;;;;64.50;4.60;;;18.10;99.90;;;;;;5020913;28;20504;-83
2022/09/09 00:49:58;;;;;;;64.30;4.37;;;18.10;99.90;;;;;;5021172;28;20400;-83
2022/09/09 00:52:35;;;;;;;63.73;4.47;;;18.10;99.90;;;;;;4950210;28;20411;-83
2022/09/09 00:55:40;;;;;;;65.20;5.00;;;18.10;99.90;;;;;;5021190;28;20744;-83
2022/09/09 00:58:08;;;;;;;64.50;4.13;;;18.10;99.90;;;;;;4958026;28;20789;-83
2022/09/09 01:00:40;;;;;;;63.60;4.60;;;18.10;99.90;;;;;;5002858;28;20960;-84
2022/09/09 01:03:11;;;;;;;64.13;4.20;;;18.10;99.90;;;;;;5003208;28;20413;-83
2022/09/09 01:05:50;;;;;;;67.60;5.33;;;18.00;99.90;;;;;;5021364;28;20423;-83
2022/09/09 01:08:46;;;;;;;64.50;4.73;;;18.00;99.90;;;;;;5023822;28;20424;-83
2022/09/09 01:11:30;;;;;;;64.50;4.20;;;18.10;99.90;;;;;;5025286;28;20381;-83
2022/09/09 01:14:33;;;;;;;65.07;4.93;;;18.00;99.90;;;;;;5025634;28;20393;-83
2022/09/09 01:17:23;;;;;;;64.67;4.67;;;18.10;99.90;;;;;;5022323;28;20502;-83
2022/09/09 01:20:19;;;;;;;64.77;4.57;;;18.00;99.90;;;;;;5024929;28;20429;-83
2022/09/09 01:23:00;;;;;;;64.60;4.80;;;18.10;99.90;;;;;;5025731;28;20881;-83
2022/09/09 01:25:39;;;;;;;70.40;5.23;;;18.00;99.90;;;;;;5025164;28;20425;-84
2022/09/09 01:28:10;;;;;;;66.30;5.30;;;18.00;99.90;;;;;;5025243;28;20408;-83
2022/09/09 01:30:40;;;;;;;66.00;6.63;;;18.00;99.90;;;;;;5007151;28;20467;-83
2022/09/09 01:33:12;;;;;;;65.93;4.50;;;18.00;99.90;;;;;;5007221;28;20405;-84
2022/09/09 01:35:55;;;;;;;64.60;5.07;;;18.10;99.90;;;;;;5024980;28;20384;-83
2022/09/09 01:38:23;;;;;;;63.57;4.07;;;18.00;99.90;;;;;;5024744;28;20808;-83
2022/09/09 01:40:51;;;;;;;64.07;4.60;;;18.10;99.90;;;;;;5025383;28;20506;-83
2022/09/09 01:43:19;;;;;;;63.90;4.63;;;18.10;99.90;;;;;;5024516;28;20401;-83
2022/09/09 01:45:48;;;;;;;64.27;5.90;;;17.90;99.90;;;;;;5024318;28;20454;-83
2022/09/09 01:48:14;;;;;;;63.97;5.47;;;17.80;99.90;;;;;;5024517;28;20428;-83
2022/09/09 01:50:40;;;;;;;65.17;5.70;;;17.80;99.90;;;;;;5024686;28;20413;-83
2022/09/09 01:53:06;;;;;;;64.77;6.20;;;17.90;99.90;;;;;;5025169;28;20408;-83
2022/09/09 01:55:38;;;;;;;67.87;7.53;;;17.80;99.90;;;;;;5006373;28;20415;-83
2022/09/09 01:58:29;;;;;;;67.40;7.00;;;17.80;99.90;;;;;;5006427;28;20479;-83
2022/09/09 02:01:20;;;;;;;65.97;7.47;;;17.80;99.90;;;;;;4961606;28;20943;-83
2022/09/09 02:03:53;;;;;;;67.50;5.97;;;17.90;99.90;;;;;;5023993;28;20472;-83
2022/09/09 02:06:34;;;;;;;65.87;6.77;;;17.90;99.90;;;;;;5024055;28;20388;-83
2022/09/09 02:09:04;;;;;;;66.60;6.53;;;17.90;99.90;;;;;;5024252;28;20396;-83
2022/09/09 02:11:31;;;;;;;67.37;6.80;;;17.90;99.90;;;;;;5024560;28;20483;-83
2022/09/09 02:14:11;;;;;;;67.03;8.07;;;17.90;99.90;;;;;;5006824;28;20436;-83
2022/09/09 02:16:55;;;;;;;65.20;5.67;;;18.00;99.90;;;;;;5024819;28;20381;-83
2022/09/09 02:19:30;;;;;;;64.63;6.90;;;18.00;99.90;;;;;;5005820;28;20495;-83
2022/09/09 02:21:59;;;;;;;66.47;7.77;;;18.00;99.90;;;;;;5023610;28;20802;-83
2022/09/09 02:24:25;;;;;;;65.03;6.07;;;18.00;99.90;;;;;;5023457;28;20413;-83
2022/09/09 02:26:54;;;;;;;66.20;6.87;;;18.00;99.90;;;;;;5023006;28;20943;-83
2022/09/09 02:29:33;;;;;;;66.03;5.97;;;18.00;99.90;;;;;;5024144;28;20440;-83
2022/09/09 02:32:03;;;;;;;65.53;6.63;;;18.00;99.90;;;;;;5006573;28;20413;-83
2022/09/09 02:34:33;;;;;;;66.57;6.37;;;18.00;99.90;;;;;;5024722;28;20523;-83
2022/09/09 02:37:00;;;;;;;68.57;7.27;;;18.00;99.90;;;;;;5023930;28;20417;-83
2022/09/09 02:39:26;;;;;;;64.90;6.40;;;18.00;99.90;;;;;;5023480;28;20457;-83
2022/09/09 02:41:52;;;;;;;65.47;7.87;;;17.90;99.90;;;;;;5023777;28;20404;-83
2022/09/09 02:44:19;;;;;;;67.97;7.17;;;17.90;99.90;;;;;;5023758;28;20166;-83
2022/09/09 02:47:13;;;;;;;66.80;6.97;;;17.90;99.90;;;;;;5006288;28;20429;-83
2022/09/09 02:49:54;;;;;;;66.00;6.83;;;17.90;99.90;;;;;;5023055;28;20386;-84
2022/09/09 02:52:30;;;;;;;65.40;6.97;;;17.80;99.90;;;;;;5006023;28;20455;-84
2022/09/09 02:55:04;;;;;;;69.47;8.77;;;17.80;99.90;;;;;;5023391;28;20385;-84
2022/09/09 02:57:32;;;;;;;68.47;8.30;;;17.80;99.90;;;;;;5023440;28;20476;-84
2022/09/09 03:00:00;;;;;;;67.67;7.57;;;17.80;99.90;;;;;;5005128;28;20877;-83
2022/09/09 03:02:26;;;;;;;65.30;7.03;;;17.80;99.90;;;;;;5005430;28;20417;-83
2022/09/09 03:04:51;;;;;;;65.87;8.90;;;17.70;99.90;;;;;;5023223;28;20401;-84
2022/09/09 03:07:18;;;;;;;68.87;8.87;;;17.70;99.90;;;;;;5022772;28;20672;-84
2022/09/09 03:09:45;;;;;;;66.50;8.67;;;17.70;99.90;;;;;;5004493;28;20177;-84
2022/09/09 03:12:11;;;;;;;65.97;9.90;;;17.60;99.90;;;;;;5022869;28;20409;-83
2022/09/09 03:14:37;;;;;;;66.00;7.70;;;17.60;99.90;;;;;;5022935;28;20405;-84
2022/09/09 03:17:04;;;;;;;66.10;8.37;;;17.60;99.90;;;;;;5022479;28;20185;-83
2022/09/09 03:19:30;;;;;;;66.43;7.93;;;17.60;99.90;;;;;;5022828;28;20445;-84
2022/09/09 03:21:56;;;;;;;66.20;9.47;;;17.60;99.90;;;;;;5022368;28;20423;-83
2022/09/09 03:24:22;;;;;;;67.00;8.70;;;17.60;99.90;;;;;;5022766;28;20408;-83
2022/09/09 03:26:48;;;;;;;66.87;8.53;;;17.60;99.90;;;;;;5022069;28;20182;-83
2022/09/09 03:29:14;;;;;;;70.07;10.67;;;17.60;99.90;;;;;;5022334;28;20432;-84
2022/09/09 03:31:40;;;;;;;66.87;8.63;;;17.50;99.90;;;;;;5022278;28;20451;-84
2022/09/09 03:34:13;;;;;;;84.93;13.40;;;17.60;99.90;;;;;;5022557;28;20397;-83
2022/09/09 03:36:40;;;;;;;66.30;11.20;;;17.60;99.90;;;;;;5004989;28;20912;-83
2022/09/09 03:39:06;;;;;;;68.53;9.80;;;17.60;99.90;;;;;;5003995;28;20508;-83
2022/09/09 03:41:32;;;;;;;68.33;10.90;;;17.60;99.90;;;;;;5022007;28;20405;-83
2022/09/09 03:43:57;;;;;;;67.70;9.63;;;17.60;99.90;;;;;;5022229;28;20159;-83
2022/09/09 03:46:26;;;;;;;66.80;8.67;;;17.60;99.90;;;;;;5004283;28;20241;-83
2022/09/09 03:48:52;;;;;;;67.27;11.07;;;17.50;99.90;;;;;;5021743;28;20162;-84
2022/09/09 03:51:19;;;;;;;69.23;9.83;;;17.50;99.90;;;;;;5022500;28;20401;-83
2022/09/09 03:53:44;;;;;;;66.93;9.97;;;17.50;99.90;;;;;;5004277;28;20470;-83
2022/09/09 03:56:10;;;;;;;69.43;11.70;;;17.50;99.90;;;;;;5022444;28;20756;-84
2022/09/09 03:58:37;;;;;;;71.20;11.50;;;17.50;99.90;;;;;;5022373;28;20201;-83
2022/09/09 04:01:10;;;;;;;68.00;10.50;;;17.60;99.90;;;;;;5022606;28;20190;-84
2022/09/09 04:03:36;;;;;;;67.30;10.67;;;17.60;99.90;;;;;;5022203;28;20388;-84
2022/09/09 04:06:03;;;;;;;67.17;10.93;;;17.60;99.90;;;;;;5003982;28;20503;-83
2022/09/09 04:08:32;;;;;;;71.00;10.57;;;17.60;99.90;;;;;;5021281;28;20186;-84
2022/09/09 04:11:00;;;;;;;65.90;8.50;;;17.50;99.90;;;;;;5021527;28;20496;-84
2022/09/09 04:13:26;;;;;;;73.60;10.53;;;17.50;99.90;;;;;;5020080;28;20414;-83
2022/09/09 04:15:54;;;;;;;67.80;11.47;;;17.50;99.90;;;;;;5020839;28;20437;-84
2022/09/09 04:18:30;;;;;;;66.70;9.87;;;17.50;99.90;;;;;;5021410;28;20801;-84
2022/09/09 04:20:59;;;;;;;66.87;10.33;;;17.50;99.90;;;;;;5021803;28;20494;-83
2022/09/09 04:23:28;;;;;;;72.33;11.17;;;17.50;99.90;;;;;;4988115;28;20414;-84
2022/09/09 04:25:55;;;;;;;66.77;10.13;;;17.50;99.90;;;;;;5021829;28;20463;-83
2022/09/09 04:28:24;;;;;;;67.60;9.60;;;17.50;99.90;;;;;;5021699;28;20425;-83
2022/09/09 04:30:50;;;;;;;71.70;9.37;;;17.50;99.90;;;;;;5021959;28;20408;-83
2022/09/09 04:33:17;;;;;;;66.87;10.10;;;17.60;99.90;;;;;;5021268;28;20433;-83
2022/09/09 04:35:50;;;;;;;67.37;11.80;;;17.60;99.90;;;;;;5021773;28;20403;-83
2022/09/09 04:38:17;;;;;;;68.23;9.37;;;17.50;99.90;;;;;;5073942;22;20463;-81
2022/09/09 04:40:47;;;;;;;67.27;9.43;;;17.50;99.90;;;;;;5040237;28;20455;-82
2022/09/09 04:43:14;;;;;;;73.93;9.13;;;17.60;99.90;;;;;;5040800;28;20492;-82
2022/09/09 04:45:40;;;;;;;67.40;11.00;;;17.60;99.90;;;;;;5022712;28;20412;-82
2022/09/09 04:48:06;;;;;;;67.07;8.00;;;17.60;99.90;;;;;;5021362;28;20515;-82
2022/09/09 04:50:33;;;;;;;68.60;8.37;;;17.60;99.90;;;;;;5039663;28;20884;-82
2022/09/09 04:53:03;;;;;;;67.57;10.90;;;17.60;99.90;;;;;;5039490;28;20415;-82
2022/09/09 04:55:30;;;;;;;68.93;10.60;;;17.70;99.90;;;;;;5040555;28;20418;-81
2022/09/09 04:58:03;;;;;;;71.67;11.70;;;17.70;99.90;;;;;;5041162;28;20796;-82
2022/09/09 05:00:29;;;;;;;67.87;9.33;;;17.80;99.90;;;;;;5038951;28;20440;-82
2022/09/09 05:02:55;;;;;;;71.90;7.80;;;17.80;99.90;;;;;;5039723;28;20464;-81
2022/09/09 05:05:20;;;;;;;69.10;8.90;;;17.80;99.90;;;;;;5022312;28;20173;-81
2022/09/09 05:07:47;;;;;;;65.90;8.30;;;17.70;99.90;;;;;;5043696;28;20212;-82
2022/09/09 05:10:16;;;;;;;67.40;8.10;;;17.80;99.90;;;;;;5043006;28;20168;-83
2022/09/09 05:12:42;;;;;;;66.90;9.00;;;17.70;99.90;;;;;;5025301;28;20412;-83
2022/09/09 05:15:09;;;;;;;71.53;9.20;;;17.70;99.90;;;;;;5043174;28;21122;-83
2022/09/09 05:17:35;;;;;;;66.07;8.50;;;17.70;99.90;;;;;;5023868;28;20467;-83
2022/09/09 05:20:01;;;;;;;66.80;8.40;;;17.70;99.90;;;;;;5041799;28;20455;-82
2022/09/09 05:22:26;;;;;;;67.13;9.30;;;17.60;99.90;;;;;;5043088;28;20168;-82
2022/09/09 05:24:52;;;;;;;66.50;9.87;;;17.70;99.90;;;;;;5042551;28;20440;-82
2022/09/09 05:27:19;;;;;;;68.60;9.77;;;17.70;99.90;;;;;;5042318;28;20202;-82
2022/09/09 05:29:45;;;;;;;74.43;9.03;;;17.70;99.90;;;;;;5024133;28;20192;-83
2022/09/09 05:32:11;;;;;;;65.70;8.33;;;17.70;99.90;;;;;;5040552;28;20404;-82
2022/09/09 05:34:37;;;;;;;65.20;7.47;;;17.70;99.90;;;;;;5023128;28;20919;-81
2022/09/09 05:37:04;;;;;;;66.87;7.70;;;17.70;99.90;;;;;;5022520;28;20458;-82
2022/09/09 05:39:30;;;;;;;66.73;7.60;;;17.70;99.90;;;;;;5041677;28;20208;-82
2022/09/09 05:41:56;;;;;;;68.07;8.20;;;17.70;99.90;;;;;;5041146;28;20404;-82
2022/09/09 05:44:24;;;;;;;65.60;8.00;;;17.70;99.90;;;;;;5041206;28;20191;-82
2022/09/09 05:46:50;;;;;;;68.10;8.30;;;17.70;99.90;;;;;;5041902;28;20432;-82
2022/09/09 05:49:16;;;;;;;70.40;8.27;;;17.60;99.90;;;;;;5024333;28;20415;-82
2022/09/09 05:51:45;;;;;;;65.07;7.10;;;17.70;99.90;;;;;;5023962;28;20170;-82
2022/09/09 05:54:13;;;;;;;66.00;6.30;;;17.60;99.90;;;;;;5025776;28;20412;-81
2022/09/09 05:56:39;;;;;;;73.50;8.50;;;17.70;99.90;;;;;;5027659;28;20461;-82
2022/09/09 05:59:05;;;;;;;69.17;6.23;;;17.80;99.90;;;;;;5042872;28;20884;-82
2022/09/09 06:01:33;;;;;;;63.47;4.60;;;17.90;99.90;;;;;;5042992;28;20165;-82
2022/09/09 06:04:00;;;;;;;64.37;4.93;;;17.90;99.90;;;;;;5042278;28;20480;-82
2022/09/09 06:06:36;;;;;;;66.17;5.37;;;18.00;99.90;;;;;;5043341;28;20411;-83
2022/09/09 06:09:06;;;;;;;65.77;4.37;;;18.00;99.90;;;;;;5041705;28;20384;-82
2022/09/09 06:11:32;;;;;;;64.93;4.50;;;18.10;99.90;;;;;;5041456;28;20893;-82
2022/09/09 06:13:59;;;;;;;68.30;4.00;;;18.00;99.90;;;;;;5040837;28;20779;-82
2022/09/09 06:16:26;;;;;;;63.50;4.20;;;18.10;99.90;;;;;;5041110;28;20438;-82
2022/09/09 06:18:54;;;;;;;68.47;3.70;;;18.10;99.90;;;;;;5040787;28;20495;-82
2022/09/09 06:21:30;;;;;;;66.20;3.93;;;18.10;99.90;;;;;;5022846;28;20542;-83
2022/09/09 06:23:55;;;;;;;63.93;3.60;;;18.00;99.90;;;;;;5040760;28;20412;-82
2022/09/09 06:26:25;;;;;;;67.00;3.90;;;18.00;99.90;;;;;;5022881;28;20554;-83
2022/09/09 06:28:52;;;;;;;64.77;4.00;;;18.00;99.90;;;;;;5022618;28;20475;-82
2022/09/09 06:31:21;;;;;;;69.97;4.83;;;18.00;99.90;;;;;;5039881;28;20426;-81
2022/09/09 06:33:49;;;;;;;68.43;3.83;;;18.10;99.90;;;;;;5020049;28;20420;-81
2022/09/09 06:36:20;;;;;;;71.03;5.50;;;18.10;99.90;;;;;;5038112;28;20404;-82
2022/09/09 06:38:47;;;;;;;67.40;6.40;;;18.10;99.90;;;;;;5040693;28;20447;-82
2022/09/09 06:41:15;;;;;;;67.20;5.30;;;18.00;99.90;;;;;;5041729;28;20440;-83
2022/09/09 06:43:41;;;;;;;67.60;5.60;;;18.00;99.90;;;;;;5022998;28;20404;-82
2022/09/09 06:46:11;;;;;;;66.67;8.67;;;17.90;99.90;;;;;;5040637;28;20412;-82
2022/09/09 06:48:42;;;;;;;67.90;8.90;;;17.80;99.90;;;;;;5038479;28;20185;-82
2022/09/09 06:51:13;;;;;;;68.77;8.57;;;17.70;99.90;;;;;;5020057;28;20807;-82
2022/09/09 06:53:40;;;;;;;67.00;8.30;;;17.80;99.90;;;;;;5039255;28;20824;-82
2022/09/09 06:56:17;;;;;;;67.37;6.53;;;17.90;99.90;;;;;;5037771;28;20433;-81
2022/09/09 06:58:46;;;;;;;70.83;8.10;;;18.00;99.90;;;;;;5020658;28;20444;-81
2022/09/09 07:01:14;;;;;;;66.97;5.50;;;18.10;99.90;;;;;;5038682;28;20455;-82
2022/09/09 07:03:41;;;;;;;66.07;5.60;;;18.20;99.90;;;;;;5022378;28;20408;-81
2022/09/09 07:06:14;;;;;;;68.50;6.50;;;18.20;99.90;;;;;;5037667;28;20407;-81
2022/09/09 07:08:40;;;;;;;65.77;4.07;;;18.20;99.90;;;;;;5038359;28;20486;-81
2022/09/09 07:11:08;;;;;;;67.27;5.30;;;18.30;99.90;;;;;;5038945;28;20416;-81
2022/09/09 07:13:34;;;;;;;65.20;4.30;;;18.30;99.90;;;;;;5038825;28;20400;-81
2022/09/09 07:16:08;;;;;;;66.07;4.87;;;18.30;99.90;;;;;;5039254;28;20405;-81
2022/09/09 07:18:34;;;;;;;70.33;4.13;;;18.30;99.90;;;;;;5039240;28;20431;-82
2022/09/09 07:21:01;;;;;;;66.10;4.00;;;18.40;99.90;;;;;;5038862;28;20458;-82
2022/09/09 07:23:28;;;;;;;66.50;4.53;;;18.40;99.90;;;;;;5038615;28;20400;-81
2022/09/09 07:25:53;;;;;;;65.40;4.60;;;18.40;99.90;;;;;;5038988;28;20400;-81
2022/09/09 07:28:20;;;;;;;67.77;4.37;;;18.40;99.90;;;;;;5041282;28;21002;-82
2022/09/09 07:31:03;;;;;;;65.40;3.70;;;18.50;99.90;;;;;;5023628;28;20248;-81
2022/09/09 07:33:30;;;;;;;67.00;4.47;;;18.60;99.90;;;;;;5042896;28;20384;-82
2022/09/09 07:36:09;;;;;;;67.67;4.83;;;18.60;99.90;;;;;;5022529;28;20420;-82
2022/09/09 07:38:39;;;;;;;66.07;4.70;;;18.70;99.90;;;;;;5040635;28;20462;-82
2022/09/09 07:41:11;;;;;;;64.27;4.50;;;18.80;99.90;;;;;;5023671;28;20907;-81
2022/09/09 07:43:38;;;;;;;67.17;3.90;;;18.90;99.90;;;;;;5041168;28;20392;-81
2022/09/09 07:46:05;;;;;;;66.17;4.77;;;19.00;98.10;;;;;;5040383;28;20404;-82
2022/09/09 07:48:32;;;;;;;69.10;3.97;;;18.90;98.50;;;;;;5040782;28;20420;-82
2022/09/09 07:51:28;;;;;;;68.67;3.20;;;18.90;98.80;;;;;;5041584;28;20408;-81
2022/09/09 07:54:02;;;;;;;71.10;3.67;;;19.00;96.80;;;;;;5040501;28;20412;-82
2022/09/09 07:56:30;;;;;;;68.93;4.00;;;19.00;95.60;;;;;;5024203;28;20408;-82
2022/09/09 07:58:57;;;;;;;68.80;3.20;;;19.20;95.00;;;;;;5043874;28;20404;-82
2022/09/09 08:01:24;;;;;;;67.13;2.70;;;19.30;95.20;;;;;;5024872;28;20482;-82
2022/09/09 08:04:02;;;;;;;67.03;2.60;;;19.40;92.60;;;;;;5042568;28;20875;-83
2022/09/09 08:06:35;;;;;;;66.27;3.50;;;19.40;90.30;;;;;;5042913;28;20416;-82
2022/09/09 08:09:01;;;;;;;67.10;3.17;;;19.50;79.10;;;;;;5042681;28;20416;-82
2022/09/09 08:11:28;;;;;;;65.73;2.80;;;19.40;76.10;;;;;;5025294;28;20416;-82
2022/09/09 08:13:54;;;;;;;70.70;3.10;;;19.40;68.30;;;;;;5043113;28;20533;-81
2022/09/09 08:16:26;;;;;;;68.17;3.10;;;19.40;81.30;;;;;;5023070;28;20415;-81
2022/09/09 08:18:53;;;;;;;67.53;2.57;;;19.40;77.00;;;;;;5024851;28;20414;-82
2022/09/09 08:21:23;;;;;;;65.70;2.70;;;19.50;81.30;;;;;;5023751;28;20850;-82
2022/09/09 08:23:52;;;;;;;64.87;2.90;;;19.50;81.80;;;;;;5023199;28;20420;-81
2022/09/09 08:26:23;;;;;;;67.37;3.90;;;19.60;80.50;;;;;;5040655;28;20915;-82
2022/09/09 08:28:51;;;;;;;69.00;4.73;;;19.70;69.20;;;;;;5022875;28;20420;-81
2022/09/09 08:31:22;;;;;;;72.00;6.97;;;19.80;59.50;;;;;;5039921;28;20420;-82
2022/09/09 08:33:48;;;;;;;66.97;5.63;;;19.90;52.60;;;;;;5040107;28;20394;-82
2022/09/09 08:36:17;;;;;;;70.60;8.17;;;19.90;54.30;;;;;;5039110;28;20405;-82
2022/09/09 08:38:46;;;;;;;67.67;9.60;;;19.90;42.40;;;;;;5039487;28;20453;-81
2022/09/09 08:41:30;;;;;;;67.80;8.67;;;19.80;42.60;;;;;;5039099;28;20939;-81
2022/09/09 08:44:39;;;;;;;69.67;10.40;;;19.70;47.00;;;;;;5040404;28;20752;-81
2022/09/09 08:47:10;;;;;;;67.87;8.80;;;19.80;46.50;;;;;;5014697;28;20435;-82
2022/09/09 08:50:02;;;;;;;68.73;8.10;;;19.80;38.20;;;;;;5039996;28;20471;-82
2022/09/09 08:52:30;;;;;;;70.37;8.10;;;19.80;34.60;;;;;;5039578;28;20393;-82
2022/09/09 08:55:22;;;;;;;66.33;5.23;;;19.90;34.70;;;;;;5022276;28;20417;-82
2022/09/09 08:57:53;;;;;;;69.80;6.43;;;20.00;32.30;;;;;;5026116;28;20453;-82
2022/09/09 09:00:20;;;;;;;67.63;6.93;;;20.10;33.20;;;;;;5040064;28;20486;-81
2022/09/09 09:03:09;;;;;;;70.70;6.40;;;20.20;32.50;;;;;;5022062;28;20495;-82
2022/09/09 09:05:46;;;;;;;66.47;5.97;;;20.30;28.40;;;;;;5040512;28;20386;-82
2022/09/09 09:08:32;;;;;;;66.23;4.57;;;20.40;30.80;;;;;;5039519;28;20427;-82
2022/09/09 09:11:00;;;;;;;68.23;4.50;;;20.40;28.20;;;;;;5039516;28;20396;-81
2022/09/09 09:13:37;;;;;;;66.80;5.33;;;20.50;31.80;;;;;;5022473;28;20413;-82
2022/09/09 09:16:41;;;;;;;67.67;4.60;;;20.50;28.60;;;;;;5022214;28;20416;-82
2022/09/09 09:19:14;;;;;;;65.40;3.67;;;20.60;28.90;;;;;;5039443;28;20406;-81
2022/09/09 09:21:54;;;;;;;74.73;4.23;;;20.50;29.00;;;;;;5039632;28;20396;-82
2022/09/09 09:24:42;;;;;;;69.77;4.23;;;20.30;30.00;;;;;;5039239;28;20464;-82
2022/09/09 09:27:36;;;;;;;70.47;5.50;;;20.20;31.60;;;;;;5038744;28;20842;-82
2022/09/09 09:30:23;;;;;;;66.03;5.33;;;20.00;34.90;;;;;;5007928;28;20418;-81
2022/09/09 09:33:15;;;;;;;68.90;7.40;;;20.10;37.10;;;;;;5043873;28;20402;-82
2022/09/09 09:35:40;;;;;;;69.27;4.73;;;20.20;38.20;;;;;;5044846;28;20435;-82
2022/09/09 09:38:33;;;;;;;66.37;3.93;;;20.30;37.90;;;;;;5026663;28;20450;-82
2022/09/09 09:41:00;;;;;;;67.00;4.23;;;20.30;32.20;;;;;;5041937;28;20209;-81
2022/09/09 09:43:36;;;;;;;69.33;6.20;;;20.30;34.80;;;;;;5043622;28;20428;-81
2022/09/09 09:46:17;;;;;;;72.83;6.07;;;20.30;38.40;;;;;;5044186;28;20386;-81
2022/09/09 09:48:45;;;;;;;65.40;3.90;;;20.30;39.20;;;;;;5043676;28;20847;-82
2022/09/09 09:51:15;;;;;;;66.87;3.53;;;20.30;36.70;;;;;;5043405;28;20474;-82
2022/09/09 09:53:42;;;;;;;68.50;5.47;;;20.40;32.70;;;;;;5044393;28;20412;-82
2022/09/09 09:56:13;;;;;;;69.47;5.00;;;20.40;35.00;;;;;;5044749;28;20452;-82
2022/09/09 09:58:45;;;;;;;66.30;3.47;;;20.50;32.70;;;;;;5042229;28;20482;-82
2022/09/09 10:01:29;;;;;;;67.27;2.83;;;20.60;30.30;;;;;;5044279;28;20440;-81
2022/09/09 10:04:01;;;;;;;67.67;2.43;;;20.90;26.00;;;;;;5043236;28;20399;-81
2022/09/09 10:06:30;;;;;;;69.77;3.63;;;20.80;22.00;;;;;;5041779;28;20425;-81
2022/09/09 10:08:56;;;;;;;66.47;2.80;;;20.80;17.80;;;;;;5041978;28;20409;-81
2022/09/09 10:11:30;;;;;;;65.30;2.60;;;20.60;22.10;;;;;;5041575;28;20416;-81
2022/09/09 10:14:22;;;;;;;68.83;3.07;;;20.70;23.60;;;;;;5023979;28;20231;-81
2022/09/09 10:17:13;;;;;;;66.70;3.30;;;20.70;22.30;;;;;;5026057;28;20545;-81
2022/09/09 10:19:52;;;;;;;67.87;3.00;;;20.70;25.30;;;;;;5024191;28;20453;-82
2022/09/09 10:22:27;;;;;;;67.77;3.17;;;20.50;21.00;;;;;;5043191;28;20387;-82
2022/09/09 10:24:56;;;;;;;70.27;4.87;;;20.60;24.50;;;;;;5041801;28;20806;-81
2022/09/09 10:27:25;;;;;;;65.20;2.37;;;20.60;29.10;;;;;;5042718;28;20513;-82
2022/09/09 10:30:10;;;;;;;66.03;2.50;;;20.70;20.90;;;;;;5023746;28;20408;-81
2022/09/09 10:33:08;;;;;;;67.70;2.77;;;20.80;21.00;;;;;;5042390;28;20416;-81
2022/09/09 10:35:48;;;;;;;67.87;3.03;;;20.90;25.30;;;;;;5041458;28;20480;-82
2022/09/09 10:40:42;;;;;;;65.97;2.30;;;21.20;13.40;;;;;;5112219;22;20471;-83
2022/09/09 10:43:39;;;;;;;67.47;3.20;;;21.30;13.40;;;;;;5048888;28;20177;-82
2022/09/09 10:46:10;;;;;;;66.87;2.43;;;21.30;7.70;;;;;;5049201;28;20418;-82
2022/09/09 10:48:47;;;;;;;65.20;2.00;;;21.70;7.20;;;;;;5046815;28;20435;-82
2022/09/09 10:51:26;;;;;;;70.27;3.30;;;22.10;1.00;;;;;;5048083;28;20376;-83
2022/09/09 10:54:17;;;;;;;65.77;2.10;;;22.30;1.00;;;;;;5048103;28;20380;-83
2022/09/09 10:56:45;;;;;;;68.27;3.17;;;22.20;1.00;;;;;;5030652;28;20439;-83
2022/09/09 10:59:20;;;;;;;71.43;2.57;;;22.10;1.00;;;;;;5028720;28;20450;-83
2022/09/09 11:02:01;;;;;;;65.90;1.97;;;22.00;1.00;;;;;;5049244;28;20377;-82
2022/09/09 11:04:49;;;;;;;65.40;2.30;;;22.10;1.00;;;;;;5048768;28;20403;-83
2022/09/09 11:07:28;;;;;;;67.80;2.27;;;22.40;1.00;;;;;;5048194;28;20408;-83
2022/09/09 11:10:01;;;;;;;66.10;2.23;;;22.20;1.00;;;;;;5032238;28;20407;-82
2022/09/09 11:12:28;;;;;;;66.10;2.57;;;22.20;1.00;;;;;;5049862;28;20384;-83
2022/09/09 11:15:17;;;;;;;66.17;2.30;;;22.20;1.00;;;;;;5049312;28;20406;-83
2022/09/09 11:17:49;;;;;;;65.87;2.43;;;22.10;1.00;;;;;;5030745;28;20486;-83
2022/09/09 11:20:15;;;;;;;67.90;2.20;;;22.00;1.00;;;;;;5031242;28;20444;-83
2022/09/09 11:22:43;;;;;;;71.23;2.30;;;21.90;1.00;;;;;;5031738;28;20470;-83
2022/09/09 11:25:25;;;;;;;66.20;2.43;;;21.80;1.00;;;;;;5049015;28;20411;-83
2022/09/09 11:28:26;;;;;;;69.20;2.90;;;21.80;1.00;;;;;;5048994;28;20496;-83
2022/09/09 11:31:30;;;;;;;68.50;2.30;;;21.90;1.00;;;;;;5049485;28;20418;-83
2022/09/09 11:34:30;;;;;;;65.00;2.20;;;22.00;1.00;;;;;;5049023;28;20400;-83
2022/09/09 11:37:20;;;;;;;66.60;2.73;;;22.00;1.00;;;;;;5030828;28;20427;-83
2022/09/09 11:40:26;;;;;;;65.90;2.27;;;22.00;1.00;;;;;;5048767;28;20513;-83
2022/09/09 11:43:05;;;;;;;65.67;2.43;;;22.20;1.00;;;;;;5045660;28;20466;-83
2022/09/09 11:45:33;;;;;;;67.30;2.07;;;22.20;1.00;;;;;;5048684;28;20415;-83
2022/09/09 11:48:03;;;;;;;68.07;2.27;;;22.40;1.00;;;;;;5048395;28;20420;-83
2022/09/09 11:50:33;;;;;;;67.97;2.87;;;22.30;1.00;;;;;;5047369;28;20392;-83
2022/09/09 11:53:23;;;;;;;68.70;2.60;;;22.30;1.00;;;;;;5047911;28;20411;-83
2022/09/09 11:56:04;;;;;;;65.80;2.50;;;22.40;1.00;;;;;;5047925;28;20460;-82
2022/09/09 11:58:39;;;;;;;66.03;2.30;;;22.40;1.00;;;;;;5046909;28;20455;-83
2022/09/09 12:01:25;;;;;;;66.80;2.37;;;22.10;1.00;;;;;;5030070;28;20456;-83
2022/09/09 12:04:09;;;;;;;66.27;2.20;;;22.00;1.00;;;;;;5030459;28;20880;-83
2022/09/09 12:06:57;;;;;;;71.30;2.90;;;21.90;1.00;;;;;;5046985;28;20424;-82
2022/09/09 12:09:36;;;;;;;66.10;2.40;;;21.60;1.00;;;;;;5029213;28;20407;-83
2022/09/09 12:12:11;;;;;;;68.53;2.60;;;21.50;1.00;;;;;;5047004;28;20491;-83
2022/09/09 12:15:01;;;;;;;67.13;2.43;;;21.50;1.00;;;;;;5046837;28;20410;-83
2022/09/09 12:17:30;;;;;;;66.87;2.67;;;21.60;1.00;;;;;;5030120;28;20424;-83
2022/09/09 12:20:14;;;;;;;65.90;2.27;;;21.70;1.00;;;;;;5048369;28;20452;-82
2022/09/09 12:22:54;;;;;;;64.43;2.27;;;21.90;1.00;;;;;;5047052;28;20388;-82
2022/09/09 12:25:57;;;;;;;70.67;2.73;;;21.80;1.00;;;;;;5029321;28;20471;-83
2022/09/09 12:28:34;;;;;;;65.90;2.27;;;22.00;1.00;;;;;;5002953;28;20440;-84
2022/09/09 12:31:17;;;;;;;67.60;2.13;;;22.10;1.00;;;;;;5029524;28;20408;-83
2022/09/09 12:33:47;;;;;;;69.33;2.20;;;22.00;1.00;;;;;;5047760;28;20412;-83
2022/09/09 12:36:33;;;;;;;65.00;2.13;;;22.00;1.00;;;;;;5047893;28;20408;-83
2022/09/09 12:39:17;;;;;;;65.87;2.27;;;21.90;1.00;;;;;;5048140;28;20426;-83
2022/09/09 12:41:56;;;;;;;67.10;2.60;;;21.70;1.00;;;;;;5047683;28;20463;-83
2022/09/09 12:44:22;;;;;;;65.27;2.53;;;21.60;1.00;;;;;;5048439;28;20810;-84
2022/09/09 12:46:48;;;;;;;64.80;2.27;;;21.50;1.00;;;;;;5048009;28;20419;-84
2022/09/09 12:49:36;;;;;;;68.30;2.30;;;21.60;1.30;;;;;;5047710;28;20406;-84
2022/09/09 12:52:13;;;;;;;67.80;2.23;;;22.00;2.20;;;;;;5029618;28;20430;-83
2022/09/09 12:54:46;;;;;;;68.03;2.67;;;22.70;1.00;;;;;;5046369;28;20380;-83
2022/09/09 12:57:13;;;;;;;68.10;2.20;;;23.20;1.00;;;;;;5047239;28;20420;-83
2022/09/09 12:59:45;;;;;;;66.67;2.80;;;23.30;1.00;;;;;;5047140;28;20451;-83
2022/09/09 13:02:26;;;;;;;68.13;2.30;;;22.90;1.00;;;;;;5049027;28;20411;-83
2022/09/09 13:04:53;;;;;;;66.10;2.53;;;22.70;1.00;;;;;;5036093;28;20404;-83
2022/09/09 13:07:20;;;;;;;66.60;2.37;;;22.50;1.00;;;;;;5053283;28;20454;-83
2022/09/09 13:09:46;;;;;;;66.60;2.30;;;22.60;1.00;;;;;;5053007;28;20404;-83
2022/09/09 13:12:19;;;;;;;68.07;2.63;;;22.80;1.00;;;;;;5053482;28;20416;-83
2022/09/09 13:14:48;;;;;;;66.57;2.33;;;22.90;1.00;;;;;;5053082;28;20806;-83